sensor_id;sensor_type;location;lat;lon;timestamp;pressure;altitude;pressure_sealevel;temperature;humidity
18819;BME280;9537;45.594;9.294;2023-08-21T00:00:15;100142.72;;;28.12;66.88
18819;BME280;9537;45.594;9.294;2023-08-21T00:01:16;100142.72;;;28.12;66.79
18819;BME280;9537;45.594;9.294;2023-08-21T00:02:17;100138.38;;;28.11;66.93
18819;BME280;9537;45.594;9.294;2023-08-21T00:03:19;100137.84;;;28.09;67.23
18819;BME280;9537;45.594;9.294;2023-08-21T00:04:19;100134.31;;;28.08;67.21
18819;BME280;9537;45.594;9.294;2023-08-21T00:05:21;100133.50;;;28.08;67.35
18819;BME280;9537;45.594;9.294;2023-08-21T00:06:22;100136.50;;;28.06;67.17
18819;BME280;9537;45.594;9.294;2023-08-21T00:07:24;100142.47;;;28.03;67.29
18819;BME280;9537;45.594;9.294;2023-08-21T00:08:26;100137.34;;;28.02;67.52
18819;BME280;9537;45.594;9.294;2023-08-21T00:09:26;100138.16;;;28.02;67.57
18819;BME280;9537;45.594;9.294;2023-08-21T00:10:29;100138.41;;;28.01;67.73
18819;BME280;9537;45.594;9.294;2023-08-21T00:11:30;100138.97;;;27.98;67.46
18819;BME280;9537;45.594;9.294;2023-08-21T00:12:32;100138.69;;;27.99;67.35
18819;BME280;9537;45.594;9.294;2023-08-21T00:13:33;100143.03;;;27.95;67.49
18819;BME280;9537;45.594;9.294;2023-08-21T00:14:35;100138.16;;;27.92;67.72
18819;BME280;9537;45.594;9.294;2023-08-21T00:15:37;100136.81;;;27.95;67.57
18819;BME280;9537;45.594;9.294;2023-08-21T00:16:39;100136.81;;;27.90;67.66
18819;BME280;9537;45.594;9.294;2023-08-21T00:17:40;100132.47;;;27.89;67.72
18819;BME280;9537;45.594;9.294;2023-08-21T00:18:42;100136.56;;;27.86;67.57
18819;BME280;9537;45.594;9.294;2023-08-21T00:19:42;100134.41;;;27.83;67.70
18819;BME280;9537;45.594;9.294;2023-08-21T00:20:44;100125.44;;;27.82;67.73
18819;BME280;9537;45.594;9.294;2023-08-21T00:21:45;100132.22;;;27.85;67.54
18819;BME280;9537;45.594;9.294;2023-08-21T00:22:48;100128.16;;;27.88;67.64
18819;BME280;9537;45.594;9.294;2023-08-21T00:23:49;100134.94;;;27.85;67.99
18819;BME280;9537;45.594;9.294;2023-08-21T00:24:51;100135.19;;;27.78;68.27
18819;BME280;9537;45.594;9.294;2023-08-21T00:25:52;100134.66;;;27.76;68.39
18819;BME280;9537;45.594;9.294;2023-08-21T00:26:53;100135.22;;;27.73;68.46
18819;BME280;9537;45.594;9.294;2023-08-21T00:27:54;100133.88;;;27.71;68.33
18819;BME280;9537;45.594;9.294;2023-08-21T00:28:56;100128.69;;;27.69;68.33
18819;BME280;9537;45.594;9.294;2023-08-21T00:29:58;100130.59;;;27.69;68.13
18819;BME280;9537;45.594;9.294;2023-08-21T00:31:00;100128.69;;;27.69;68.29
18819;BME280;9537;45.594;9.294;2023-08-21T00:32:01;100128.44;;;27.66;68.46
18819;BME280;9537;45.594;9.294;2023-08-21T00:33:03;100127.09;;;27.63;68.72
18819;BME280;9537;45.594;9.294;2023-08-21T00:34:04;100130.34;;;27.65;68.48
18819;BME280;9537;45.594;9.294;2023-08-21T00:35:06;100133.63;;;27.62;68.99
18819;BME280;9537;45.594;9.294;2023-08-21T00:36:07;100135.22;;;27.63;69.08
18819;BME280;9537;45.594;9.294;2023-08-21T00:37:09;100131.16;;;27.60;69.29
18819;BME280;9537;45.594;9.294;2023-08-21T00:38:12;100132.25;;;27.59;69.67
18819;BME280;9537;45.594;9.294;2023-08-21T00:39:14;100130.59;;;27.58;69.74
18819;BME280;9537;45.594;9.294;2023-08-21T00:40:15;100131.16;;;27.55;69.88
18819;BME280;9537;45.594;9.294;2023-08-21T00:41:16;100140.94;;;27.56;69.74
18819;BME280;9537;45.594;9.294;2023-08-21T00:42:17;100137.41;;;27.56;69.80
18819;BME280;9537;45.594;9.294;2023-08-21T00:43:20;100146.38;;;27.56;69.76
18819;BME280;9537;45.594;9.294;2023-08-21T00:44:20;100130.91;;;27.57;69.46
18819;BME280;9537;45.594;9.294;2023-08-21T00:45:22;100134.41;;;27.57;70.00
18819;BME280;9537;45.594;9.294;2023-08-21T00:46:23;100139.84;;;27.57;69.60
18819;BME280;9537;45.594;9.294;2023-08-21T00:47:24;100141.47;;;27.58;69.46
18819;BME280;9537;45.594;9.294;2023-08-21T00:48:26;100135.78;;;27.60;69.13
18819;BME280;9537;45.594;9.294;2023-08-21T00:49:27;100134.69;;;27.61;69.10
18819;BME280;9537;45.594;9.294;2023-08-21T00:50:29;100135.22;;;27.58;69.14
18819;BME280;9537;45.594;9.294;2023-08-21T00:51:30;100136.31;;;27.57;69.10
18819;BME280;9537;45.594;9.294;2023-08-21T00:52:32;100134.72;;;27.51;69.37
18819;BME280;9537;45.594;9.294;2023-08-21T00:53:35;100137.44;;;27.51;69.52
18819;BME280;9537;45.594;9.294;2023-08-21T00:54:37;100133.06;;;27.50;69.46
18819;BME280;9537;45.594;9.294;2023-08-21T00:55:38;100135.78;;;27.50;69.50
18819;BME280;9537;45.594;9.294;2023-08-21T00:56:40;100129.53;;;27.49;69.66
18819;BME280;9537;45.594;9.294;2023-08-21T00:57:41;100134.16;;;27.49;69.39
18819;BME280;9537;45.594;9.294;2023-08-21T00:58:43;100143.41;;;27.48;69.51
18819;BME280;9537;45.594;9.294;2023-08-21T00:59:44;100132.53;;;27.48;69.54
18819;BME280;9537;45.594;9.294;2023-08-21T01:00:48;100139.03;;;27.47;69.71
18819;BME280;9537;45.594;9.294;2023-08-21T01:01:51;100136.31;;;27.47;69.56
18819;BME280;9537;45.594;9.294;2023-08-21T01:02:53;100131.75;;;27.47;69.53
18819;BME280;9537;45.594;9.294;2023-08-21T01:03:54;100137.97;;;27.48;69.31
18819;BME280;9537;45.594;9.294;2023-08-21T01:04:55;100136.31;;;27.47;69.69
18819;BME280;9537;45.594;9.294;2023-08-21T01:05:56;100136.88;;;27.44;69.83
18819;BME280;9537;45.594;9.294;2023-08-21T01:06:57;100130.63;;;27.43;69.90
18819;BME280;9537;45.594;9.294;2023-08-21T01:08:02;100127.94;;;27.43;69.64
18819;BME280;9537;45.594;9.294;2023-08-21T01:09:09;100128.22;;;27.42;69.74
18819;BME280;9537;45.594;9.294;2023-08-21T01:10:18;100137.97;;;27.43;69.65
18819;BME280;9537;45.594;9.294;2023-08-21T01:11:24;100132.81;;;27.41;69.65
18819;BME280;9537;45.594;9.294;2023-08-21T01:12:32;100138.81;;;27.33;69.60
18819;BME280;9537;45.594;9.294;2023-08-21T01:13:40;100133.91;;;27.30;69.82
18819;BME280;9537;45.594;9.294;2023-08-21T01:14:51;100136.09;;;27.28;70.19
18819;BME280;9537;45.594;9.294;2023-08-21T01:15:55;100134.19;;;27.28;70.09
18819;BME280;9537;45.594;9.294;2023-08-21T01:17:00;100134.19;;;27.28;70.17
18819;BME280;9537;45.594;9.294;2023-08-21T01:18:01;100138.50;;;27.29;70.08
18819;BME280;9537;45.594;9.294;2023-08-21T01:19:06;100135.28;;;27.27;70.12
18819;BME280;9537;45.594;9.294;2023-08-21T01:20:10;100135.00;;;27.24;70.20
18819;BME280;9537;45.594;9.294;2023-08-21T01:21:12;100139.88;;;27.22;70.44
18819;BME280;9537;45.594;9.294;2023-08-21T01:22:13;100139.88;;;27.16;70.83
18819;BME280;9537;45.594;9.294;2023-08-21T01:23:31;100130.94;;;27.16;70.79
18819;BME280;9537;45.594;9.294;2023-08-21T01:24:32;100135.78;;;27.14;70.58
18819;BME280;9537;45.594;9.294;2023-08-21T01:25:34;100134.69;;;27.15;70.77
18819;BME280;9537;45.594;9.294;2023-08-21T01:26:35;100134.41;;;27.11;70.80
18819;BME280;9537;45.594;9.294;2023-08-21T01:27:38;100130.34;;;27.09;71.33
18819;BME280;9537;45.594;9.294;2023-08-21T01:28:40;100137.41;;;27.05;71.13
18819;BME280;9537;45.594;9.294;2023-08-21T01:29:42;100148.22;;;27.10;71.28
18819;BME280;9537;45.594;9.294;2023-08-21T01:30:44;100136.06;;;27.07;71.30
18819;BME280;9537;45.594;9.294;2023-08-21T01:31:49;100134.97;;;27.08;71.26
18819;BME280;9537;45.594;9.294;2023-08-21T01:32:57;100139.03;;;27.06;71.32
18819;BME280;9537;45.594;9.294;2023-08-21T01:34:04;100145.25;;;27.06;71.37
18819;BME280;9537;45.594;9.294;2023-08-21T01:35:07;100146.06;;;27.07;71.49
18819;BME280;9537;45.594;9.294;2023-08-21T01:36:12;100146.91;;;27.07;71.37
18819;BME280;9537;45.594;9.294;2023-08-21T01:37:13;100147.44;;;27.04;71.55
18819;BME280;9537;45.594;9.294;2023-08-21T01:38:16;100143.91;;;27.04;71.31
18819;BME280;9537;45.594;9.294;2023-08-21T01:39:18;100144.75;;;27.04;71.40
18819;BME280;9537;45.594;9.294;2023-08-21T01:40:21;100142.81;;;27.00;71.55
18819;BME280;9537;45.594;9.294;2023-08-21T01:41:23;100140.66;;;27.02;71.31
18819;BME280;9537;45.594;9.294;2023-08-21T01:42:23;100141.72;;;27.01;71.73
18819;BME280;9537;45.594;9.294;2023-08-21T01:43:25;100141.72;;;27.01;71.71
18819;BME280;9537;45.594;9.294;2023-08-21T01:44:26;100136.59;;;26.99;71.82
18819;BME280;9537;45.594;9.294;2023-08-21T01:45:28;100143.06;;;26.98;71.88
18819;BME280;9537;45.594;9.294;2023-08-21T01:46:30;100137.94;;;26.96;71.90
18819;BME280;9537;45.594;9.294;2023-08-21T01:47:32;100141.19;;;26.93;71.85
18819;BME280;9537;45.594;9.294;2023-08-21T01:48:33;100142.53;;;26.91;71.98
18819;BME280;9537;45.594;9.294;2023-08-21T01:49:34;100139.53;;;26.92;72.18
18819;BME280;9537;45.594;9.294;2023-08-21T01:50:35;100146.06;;;26.91;72.19
18819;BME280;9537;45.594;9.294;2023-08-21T01:51:37;100134.41;;;26.91;72.11
18819;BME280;9537;45.594;9.294;2023-08-21T01:52:38;100135.22;;;26.91;72.02
18819;BME280;9537;45.594;9.294;2023-08-21T01:53:40;100146.06;;;26.91;72.05
18819;BME280;9537;45.594;9.294;2023-08-21T01:54:42;100139.03;;;26.90;72.06
18819;BME280;9537;45.594;9.294;2023-08-21T01:55:44;100139.56;;;26.87;72.44
18819;BME280;9537;45.594;9.294;2023-08-21T01:56:45;100146.59;;;26.88;72.17
18819;BME280;9537;45.594;9.294;2023-08-21T01:57:47;100133.84;;;26.89;72.24
18819;BME280;9537;45.594;9.294;2023-08-21T01:58:47;100138.47;;;26.88;72.35
18819;BME280;9537;45.594;9.294;2023-08-21T01:59:49;100143.91;;;26.88;72.53
18819;BME280;9537;45.594;9.294;2023-08-21T02:00:50;100136.84;;;26.87;72.36
18819;BME280;9537;45.594;9.294;2023-08-21T02:01:52;100140.38;;;26.88;72.53
18819;BME280;9537;45.594;9.294;2023-08-21T02:02:52;100136.84;;;26.87;72.41
18819;BME280;9537;45.594;9.294;2023-08-21T02:03:54;100136.31;;;26.85;72.12
18819;BME280;9537;45.594;9.294;2023-08-21T02:04:55;100137.91;;;26.81;72.58
18819;BME280;9537;45.594;9.294;2023-08-21T02:05:56;100143.06;;;26.78;72.41
18819;BME280;9537;45.594;9.294;2023-08-21T02:06:58;100137.91;;;26.76;72.74
18819;BME280;9537;45.594;9.294;2023-08-21T02:08:01;100136.03;;;26.77;72.59
18819;BME280;9537;45.594;9.294;2023-08-21T02:09:01;100140.63;;;26.76;72.72
18819;BME280;9537;45.594;9.294;2023-08-21T02:10:06;100141.69;;;26.75;72.57
18819;BME280;9537;45.594;9.294;2023-08-21T02:11:06;100135.47;;;26.74;72.84
18819;BME280;9537;45.594;9.294;2023-08-21T02:12:08;100140.06;;;26.74;72.81
18819;BME280;9537;45.594;9.294;2023-08-21T02:13:09;100143.31;;;26.71;73.14
18819;BME280;9537;45.594;9.294;2023-08-21T02:14:10;100136.53;;;26.68;72.83
18819;BME280;9537;45.594;9.294;2023-08-21T02:15:11;100137.34;;;26.69;72.70
18819;BME280;9537;45.594;9.294;2023-08-21T02:16:12;100140.34;;;26.67;72.87
18819;BME280;9537;45.594;9.294;2023-08-21T02:17:14;100138.97;;;26.65;72.86
18819;BME280;9537;45.594;9.294;2023-08-21T02:18:15;100135.47;;;26.64;72.80
18819;BME280;9537;45.594;9.294;2023-08-21T02:19:15;100141.13;;;26.58;73.04
18819;BME280;9537;45.594;9.294;2023-08-21T02:20:20;100138.41;;;26.58;72.92
18819;BME280;9537;45.594;9.294;2023-08-21T02:21:21;100139.50;;;26.57;73.26
18819;BME280;9537;45.594;9.294;2023-08-21T02:22:23;100147.34;;;26.58;73.46
18819;BME280;9537;45.594;9.294;2023-08-21T02:23:23;100137.88;;;26.56;73.48
18819;BME280;9537;45.594;9.294;2023-08-21T02:24:25;100141.66;;;26.55;73.47
18819;BME280;9537;45.594;9.294;2023-08-21T02:25:29;100138.94;;;26.55;73.76
18819;BME280;9537;45.594;9.294;2023-08-21T02:26:30;100139.75;;;26.50;73.73
18819;BME280;9537;45.594;9.294;2023-08-21T02:27:31;100145.16;;;26.55;73.41
18819;BME280;9537;45.594;9.294;2023-08-21T02:28:32;100147.88;;;26.55;73.44
18819;BME280;9537;45.594;9.294;2023-08-21T02:29:34;100143.00;;;26.52;73.84
18819;BME280;9537;45.594;9.294;2023-08-21T02:30:35;100137.56;;;26.52;73.78
18819;BME280;9537;45.594;9.294;2023-08-21T02:31:36;100143.28;;;26.50;73.92
18819;BME280;9537;45.594;9.294;2023-08-21T02:32:37;100134.63;;;26.54;73.63
18819;BME280;9537;45.594;9.294;2023-08-21T02:33:40;100137.56;;;26.52;73.72
18819;BME280;9537;45.594;9.294;2023-08-21T02:34:41;100135.66;;;26.47;74.00
18819;BME280;9537;45.594;9.294;2023-08-21T02:35:43;100135.38;;;26.49;73.83
18819;BME280;9537;45.594;9.294;2023-08-21T02:36:43;100141.88;;;26.48;73.75
18819;BME280;9537;45.594;9.294;2023-08-21T02:37:44;100137.28;;;26.48;73.90
18819;BME280;9537;45.594;9.294;2023-08-21T02:38:46;100139.16;;;26.48;73.72
18819;BME280;9537;45.594;9.294;2023-08-21T02:39:47;100130.22;;;26.42;74.22
18819;BME280;9537;45.594;9.294;2023-08-21T02:40:50;100138.34;;;26.42;74.35
18819;BME280;9537;45.594;9.294;2023-08-21T02:41:51;100130.47;;;26.41;74.32
18819;BME280;9537;45.594;9.294;2023-08-21T02:42:51;100142.66;;;26.43;74.21
18819;BME280;9537;45.594;9.294;2023-08-21T02:43:53;100139.72;;;26.45;74.39
18819;BME280;9537;45.594;9.294;2023-08-21T02:44:54;100137.25;;;26.43;74.10
18819;BME280;9537;45.594;9.294;2023-08-21T02:45:56;100138.59;;;26.41;74.29
18819;BME280;9537;45.594;9.294;2023-08-21T02:46:56;100138.59;;;26.41;74.16
18819;BME280;9537;45.594;9.294;2023-08-21T02:47:58;100131.28;;;26.36;74.51
18819;BME280;9537;45.594;9.294;2023-08-21T02:48:59;100131.53;;;26.35;74.67
18819;BME280;9537;45.594;9.294;2023-08-21T02:50:00;100135.59;;;26.32;74.76
18819;BME280;9537;45.594;9.294;2023-08-21T02:51:01;100131.00;;;26.33;74.75
18819;BME280;9537;45.594;9.294;2023-08-21T02:52:04;100131.00;;;26.33;74.56
18819;BME280;9537;45.594;9.294;2023-08-21T02:53:05;100137.22;;;26.28;74.73
18819;BME280;9537;45.594;9.294;2023-08-21T02:54:06;100130.44;;;26.31;74.40
18819;BME280;9537;45.594;9.294;2023-08-21T02:55:07;100133.41;;;26.29;74.52
18819;BME280;9537;45.594;9.294;2023-08-21T02:56:10;100128.56;;;26.31;74.31
18819;BME280;9537;45.594;9.294;2023-08-21T02:57:11;100135.88;;;26.31;74.47
18819;BME280;9537;45.594;9.294;2023-08-21T02:58:13;100135.06;;;26.30;74.96
18819;BME280;9537;45.594;9.294;2023-08-21T02:59:14;100135.31;;;26.28;74.88
18819;BME280;9537;45.594;9.294;2023-08-21T03:00:16;100127.72;;;26.25;74.82
18819;BME280;9537;45.594;9.294;2023-08-21T03:01:17;100130.19;;;26.27;74.95
18819;BME280;9537;45.594;9.294;2023-08-21T03:02:19;100124.75;;;26.27;74.78
18819;BME280;9537;45.594;9.294;2023-08-21T03:03:20;100135.59;;;26.27;75.04
18819;BME280;9537;45.594;9.294;2023-08-21T03:04:21;100141.81;;;26.27;75.04
18819;BME280;9537;45.594;9.294;2023-08-21T03:05:23;100133.69;;;26.27;74.76
18819;BME280;9537;45.594;9.294;2023-08-21T03:06:25;100138.53;;;26.25;74.77
18819;BME280;9537;45.594;9.294;2023-08-21T03:07:26;100133.94;;;26.26;74.97
18819;BME280;9537;45.594;9.294;2023-08-21T03:08:26;100132.31;;;26.25;74.71
18819;BME280;9537;45.594;9.294;2023-08-21T03:09:28;100130.44;;;26.25;74.42
18819;BME280;9537;45.594;9.294;2023-08-21T03:10:29;100127.72;;;26.25;74.67
18819;BME280;9537;45.594;9.294;2023-08-21T03:11:36;100124.72;;;26.22;74.54
18819;BME280;9537;45.594;9.294;2023-08-21T03:12:36;100133.91;;;26.21;74.47
18819;BME280;9537;45.594;9.294;2023-08-21T03:13:38;100127.97;;;26.19;74.60
18819;BME280;9537;45.594;9.294;2023-08-21T03:14:39;100130.41;;;26.20;74.59
18819;BME280;9537;45.594;9.294;2023-08-21T03:15:41;100126.88;;;26.20;74.88
18819;BME280;9537;45.594;9.294;2023-08-21T03:16:41;100127.16;;;26.18;74.95
18819;BME280;9537;45.594;9.294;2023-08-21T03:17:43;100134.19;;;26.19;74.87
18819;BME280;9537;45.594;9.294;2023-08-21T03:18:57;100132.59;;;26.18;74.95
18819;BME280;9537;45.594;9.294;2023-08-21T03:19:59;100130.94;;;26.17;75.16
18819;BME280;9537;45.594;9.294;2023-08-21T03:20:59;100124.72;;;26.17;74.74
18819;BME280;9537;45.594;9.294;2023-08-21T03:22:01;100123.91;;;26.16;74.95
18819;BME280;9537;45.594;9.294;2023-08-21T03:23:02;100124.72;;;26.17;75.31
18819;BME280;9537;45.594;9.294;2023-08-21T03:24:05;100118.19;;;26.18;75.10
18819;BME280;9537;45.594;9.294;2023-08-21T03:25:07;100122.81;;;26.17;74.74
18819;BME280;9537;45.594;9.294;2023-08-21T03:26:09;100122.81;;;26.17;75.14
18819;BME280;9537;45.594;9.294;2023-08-21T03:27:11;100120.91;;;26.18;74.93
18819;BME280;9537;45.594;9.294;2023-08-21T03:28:13;100121.47;;;26.20;74.69
18819;BME280;9537;45.594;9.294;2023-08-21T03:29:13;100119.03;;;26.18;74.48
18819;BME280;9537;45.594;9.294;2023-08-21T03:30:15;100120.09;;;26.17;74.85
18819;BME280;9537;45.594;9.294;2023-08-21T03:31:16;100124.72;;;26.17;74.38
18819;BME280;9537;45.594;9.294;2023-08-21T03:32:18;100121.19;;;26.16;74.58
18819;BME280;9537;45.594;9.294;2023-08-21T03:33:19;100118.50;;;26.16;74.66
18819;BME280;9537;45.594;9.294;2023-08-21T03:34:20;100117.69;;;26.16;74.97
18819;BME280;9537;45.594;9.294;2023-08-21T03:35:21;100118.75;;;26.15;74.61
18819;BME280;9537;45.594;9.294;2023-08-21T03:36:23;100111.16;;;26.12;74.78
18819;BME280;9537;45.594;9.294;2023-08-21T03:37:31;100121.97;;;26.12;74.83
18819;BME280;9537;45.594;9.294;2023-08-21T03:38:32;100110.34;;;26.11;74.70
18819;BME280;9537;45.594;9.294;2023-08-21T03:39:33;100115.50;;;26.13;74.44
18819;BME280;9537;45.594;9.294;2023-08-21T03:40:35;100108.72;;;26.10;74.68
18819;BME280;9537;45.594;9.294;2023-08-21T03:41:36;100118.22;;;26.13;75.00
18819;BME280;9537;45.594;9.294;2023-08-21T03:42:39;100113.28;;;26.10;74.77
18819;BME280;9537;45.594;9.294;2023-08-21T03:43:40;100113.81;;;26.06;74.97
18819;BME280;9537;45.594;9.294;2023-08-21T03:44:42;100110.84;;;26.03;74.97
18819;BME280;9537;45.594;9.294;2023-08-21T03:45:42;100116.53;;;26.01;75.09
18819;BME280;9537;45.594;9.294;2023-08-21T03:46:43;100111.66;;;26.03;75.15
18819;BME280;9537;45.594;9.294;2023-08-21T03:47:45;100115.16;;;26.04;75.16
18819;BME280;9537;45.594;9.294;2023-08-21T03:48:46;100117.34;;;26.02;75.09
18819;BME280;9537;45.594;9.294;2023-08-21T03:49:47;100123.28;;;25.99;75.01
18819;BME280;9537;45.594;9.294;2023-08-21T03:50:49;100117.59;;;26.00;75.37
18819;BME280;9537;45.594;9.294;2023-08-21T03:51:50;100124.66;;;26.01;74.89
18819;BME280;9537;45.594;9.294;2023-08-21T03:52:51;100123.53;;;25.97;74.78
18819;BME280;9537;45.594;9.294;2023-08-21T03:53:53;100122.47;;;25.98;75.17
18819;BME280;9537;45.594;9.294;2023-08-21T03:54:54;100128.94;;;25.97;75.23
18819;BME280;9537;45.594;9.294;2023-08-21T03:55:55;100124.63;;;25.96;75.18
18819;BME280;9537;45.594;9.294;2023-08-21T03:56:56;100124.34;;;25.98;75.42
18819;BME280;9537;45.594;9.294;2023-08-21T03:57:59;100123.81;;;25.96;75.46
18819;BME280;9537;45.594;9.294;2023-08-21T03:59:00;100125.97;;;25.94;75.33
18819;BME280;9537;45.594;9.294;2023-08-21T04:00:02;100127.56;;;25.95;75.27
18819;BME280;9537;45.594;9.294;2023-08-21T04:01:04;100132.72;;;25.91;75.60
18819;BME280;9537;45.594;9.294;2023-08-21T04:02:07;100134.84;;;25.89;75.61
18819;BME280;9537;45.594;9.294;2023-08-21T04:03:08;100132.16;;;25.89;75.70
18819;BME280;9537;45.594;9.294;2023-08-21T04:04:09;100132.44;;;25.88;75.31
18819;BME280;9537;45.594;9.294;2023-08-21T04:05:10;100132.94;;;25.84;75.75
18819;BME280;9537;45.594;9.294;2023-08-21T04:06:12;100128.03;;;25.81;76.12
18819;BME280;9537;45.594;9.294;2023-08-21T04:07:13;100131.31;;;25.83;75.71
18819;BME280;9537;45.594;9.294;2023-08-21T04:08:15;100131.88;;;25.86;75.81
18819;BME280;9537;45.594;9.294;2023-08-21T04:09:16;100130.50;;;25.83;76.22
18819;BME280;9537;45.594;9.294;2023-08-21T04:10:17;100135.91;;;25.83;76.33
18819;BME280;9537;45.594;9.294;2023-08-21T04:11:18;100125.09;;;25.83;76.01
18819;BME280;9537;45.594;9.294;2023-08-21T04:12:20;100128.59;;;25.83;76.28
18819;BME280;9537;45.594;9.294;2023-08-21T04:13:22;100136.72;;;25.83;76.15
18819;BME280;9537;45.594;9.294;2023-08-21T04:14:24;100129.69;;;25.82;76.27
18819;BME280;9537;45.594;9.294;2023-08-21T04:15:25;100139.66;;;25.82;76.17
18819;BME280;9537;45.594;9.294;2023-08-21T04:16:27;100130.75;;;25.81;76.63
18819;BME280;9537;45.594;9.294;2023-08-21T04:17:28;100132.59;;;25.81;76.63
18819;BME280;9537;45.594;9.294;2023-08-21T04:18:30;100129.91;;;25.81;76.34
18819;BME280;9537;45.594;9.294;2023-08-21T04:19:31;100129.09;;;25.80;76.54
18819;BME280;9537;45.594;9.294;2023-08-21T04:20:34;100132.59;;;25.81;76.55
18819;BME280;9537;45.594;9.294;2023-08-21T04:21:34;100131.50;;;25.77;76.53
18819;BME280;9537;45.594;9.294;2023-08-21T04:22:36;100136.13;;;25.76;76.69
18819;BME280;9537;45.594;9.294;2023-08-21T04:23:37;100133.13;;;25.78;76.55
18819;BME280;9537;45.594;9.294;2023-08-21T04:24:39;100126.34;;;25.75;76.69
18819;BME280;9537;45.594;9.294;2023-08-21T04:25:40;100137.16;;;25.75;76.50
18819;BME280;9537;45.594;9.294;2023-08-21T04:26:43;100132.03;;;25.74;76.58
18819;BME280;9537;45.594;9.294;2023-08-21T04:27:44;100127.72;;;25.73;76.98
18819;BME280;9537;45.594;9.294;2023-08-21T04:28:47;100127.16;;;25.71;77.00
18819;BME280;9537;45.594;9.294;2023-08-21T04:29:47;100131.22;;;25.73;76.97
18819;BME280;9537;45.594;9.294;2023-08-21T04:30:48;100127.97;;;25.71;76.79
18819;BME280;9537;45.594;9.294;2023-08-21T04:31:50;100131.47;;;25.72;76.80
18819;BME280;9537;45.594;9.294;2023-08-21T04:32:51;100133.13;;;25.73;76.68
18819;BME280;9537;45.594;9.294;2023-08-21T04:33:52;100133.94;;;25.73;76.85
18819;BME280;9537;45.594;9.294;2023-08-21T04:34:53;100133.66;;;25.75;76.68
18819;BME280;9537;45.594;9.294;2023-08-21T04:35:55;100128.78;;;25.72;76.98
18819;BME280;9537;45.594;9.294;2023-08-21T04:36:56;100137.44;;;25.74;76.54
18819;BME280;9537;45.594;9.294;2023-08-21T04:37:56;100136.19;;;25.87;75.10
18819;BME280;9537;45.594;9.294;2023-08-21T04:38:58;100131.41;;;25.99;74.20
18819;BME280;9537;45.594;9.294;2023-08-21T04:39:59;100128.19;;;26.07;73.97
18819;BME280;9537;45.594;9.294;2023-08-21T04:41:06;100134.97;;;26.15;73.45
18819;BME280;9537;45.594;9.294;2023-08-21T04:42:10;100133.09;;;26.20;72.94
18819;BME280;9537;45.594;9.294;2023-08-21T04:43:12;100138.00;;;26.23;72.81
18819;BME280;9537;45.594;9.294;2023-08-21T04:44:14;100133.69;;;26.27;72.68
18819;BME280;9537;45.594;9.294;2023-08-21T04:45:16;100142.09;;;26.31;72.56
18819;BME280;9537;45.594;9.294;2023-08-21T04:46:16;100137.50;;;26.37;72.53
18819;BME280;9537;45.594;9.294;2023-08-21T04:47:20;100142.13;;;26.41;72.30
18819;BME280;9537;45.594;9.294;2023-08-21T04:48:21;100137.22;;;26.38;73.75
18819;BME280;9537;45.594;9.294;2023-08-21T04:49:23;100134.22;;;26.29;74.13
18819;BME280;9537;45.594;9.294;2023-08-21T04:50:24;100145.84;;;26.20;75.01
18819;BME280;9537;45.594;9.294;2023-08-21T04:51:26;100144.97;;;26.09;76.09
18819;BME280;9537;45.594;9.294;2023-08-21T04:52:26;100143.06;;;26.04;75.78
18819;BME280;9537;45.594;9.294;2023-08-21T04:53:27;100147.34;;;26.00;76.57
18819;BME280;9537;45.594;9.294;2023-08-21T04:54:29;100146.84;;;25.98;76.43
18819;BME280;9537;45.594;9.294;2023-08-21T04:55:30;100136.25;;;25.97;76.41
18819;BME280;9537;45.594;9.294;2023-08-21T04:56:31;100146.53;;;25.95;76.50
18819;BME280;9537;45.594;9.294;2023-08-21T04:57:32;100145.72;;;25.94;77.00
18819;BME280;9537;45.594;9.294;2023-08-21T04:58:33;100141.09;;;25.95;76.87
18819;BME280;9537;45.594;9.294;2023-08-21T04:59:37;100146.78;;;25.93;76.87
18819;BME280;9537;45.594;9.294;2023-08-21T05:00:38;100146.22;;;25.91;77.33
18819;BME280;9537;45.594;9.294;2023-08-21T05:01:40;100146.75;;;25.88;77.40
18819;BME280;9537;45.594;9.294;2023-08-21T05:02:40;100151.63;;;25.86;77.02
18819;BME280;9537;45.594;9.294;2023-08-21T05:03:42;100151.53;;;25.81;77.40
18819;BME280;9537;45.594;9.294;2023-08-21T05:04:43;100146.13;;;25.76;77.24
18819;BME280;9537;45.594;9.294;2023-08-21T05:05:52;100148.84;;;25.76;77.63
18819;BME280;9537;45.594;9.294;2023-08-21T05:06:53;100154.78;;;25.78;77.51
18819;BME280;9537;45.594;9.294;2023-08-21T05:07:54;100149.38;;;25.78;77.26
18819;BME280;9537;45.594;9.294;2023-08-21T05:08:55;100152.34;;;25.76;77.57
18819;BME280;9537;45.594;9.294;2023-08-21T05:09:59;100160.19;;;25.78;77.97
18819;BME280;9537;45.594;9.294;2023-08-21T05:11:01;100152.06;;;25.73;78.34
18819;BME280;9537;45.594;9.294;2023-08-21T05:12:03;100156.63;;;25.72;78.43
18819;BME280;9537;45.594;9.294;2023-08-21T05:13:04;100154.78;;;25.73;77.94
18819;BME280;9537;45.594;9.294;2023-08-21T05:14:06;100157.47;;;25.73;78.06
18819;BME280;9537;45.594;9.294;2023-08-21T05:15:09;100150.97;;;25.74;78.26
18819;BME280;9537;45.594;9.294;2023-08-21T05:16:11;100162.38;;;25.76;78.45
18819;BME280;9537;45.594;9.294;2023-08-21T05:17:11;100155.81;;;25.72;78.73
18819;BME280;9537;45.594;9.294;2023-08-21T05:18:13;100156.63;;;25.72;78.64
18819;BME280;9537;45.594;9.294;2023-08-21T05:19:14;100155.81;;;25.72;78.60
18819;BME280;9537;45.594;9.294;2023-08-21T05:20:15;100161.22;;;25.72;78.21
18819;BME280;9537;45.594;9.294;2023-08-21T05:21:16;100156.09;;;25.70;78.33
18819;BME280;9537;45.594;9.294;2023-08-21T05:22:18;100159.88;;;25.69;78.47
18819;BME280;9537;45.594;9.294;2023-08-21T05:23:18;100154.72;;;25.68;78.95
18819;BME280;9537;45.594;9.294;2023-08-21T05:24:20;100160.13;;;25.68;79.20
18819;BME280;9537;45.594;9.294;2023-08-21T05:25:21;100154.72;;;25.68;79.26
18819;BME280;9537;45.594;9.294;2023-08-21T05:26:23;100155.28;;;25.70;79.15
18819;BME280;9537;45.594;9.294;2023-08-21T05:27:24;100152.59;;;25.70;79.45